sensor_id;sensor_type;location;lat;lon;timestamp;temperature;humidity
21944;DHT22;11136;48.778;9.126;2023-04-06T00:01:26;5.70;67.90
21944;DHT22;11136;48.778;9.126;2023-04-06T00:03:52;5.70;68.00
21944;DHT22;11136;48.778;9.126;2023-04-06T00:06:17;5.70;68.10
21944;DHT22;11136;48.778;9.126;2023-04-06T00:08:43;5.60;68.10
21944;DHT22;11136;48.778;9.126;2023-04-06T00:11:09;5.60;68.10
21944;DHT22;11136;48.778;9.126;2023-04-06T00:13:35;5.50;68.20
21944;DHT22;11136;48.778;9.126;2023-04-06T00:16:01;5.50;68.40
21944;DHT22;11136;48.778;9.126;2023-04-06T00:18:26;5.50;68.60
21944;DHT22;11136;48.778;9.126;2023-04-06T00:20:52;5.50;68.70
21944;DHT22;11136;48.778;9.126;2023-04-06T00:23:17;5.40;68.80
21944;DHT22;11136;48.778;9.126;2023-04-06T00:25:43;5.40;69.00
21944;DHT22;11136;48.778;9.126;2023-04-06T00:28:09;5.50;69.10
21944;DHT22;11136;48.778;9.126;2023-04-06T00:30:34;5.40;69.30
21944;DHT22;11136;48.778;9.126;2023-04-06T00:33:00;5.40;69.20
21944;DHT22;11136;48.778;9.126;2023-04-06T00:35:26;5.30;69.30
21944;DHT22;11136;48.778;9.126;2023-04-06T00:37:51;5.30;69.30
21944;DHT22;11136;48.778;9.126;2023-04-06T00:40:17;5.30;69.40
21944;DHT22;11136;48.778;9.126;2023-04-06T00:42:43;5.30;69.40
21944;DHT22;11136;48.778;9.126;2023-04-06T00:45:10;5.30;69.50
21944;DHT22;11136;48.778;9.126;2023-04-06T00:47:35;5.30;69.60
21944;DHT22;11136;48.778;9.126;2023-04-06T00:50:01;5.30;69.60
21944;DHT22;11136;48.778;9.126;2023-04-06T00:52:27;5.20;69.60
21944;DHT22;11136;48.778;9.126;2023-04-06T00:54:53;5.20;69.70
21944;DHT22;11136;48.778;9.126;2023-04-06T00:57:19;5.20;69.80
21944;DHT22;11136;48.778;9.126;2023-04-06T00:59:45;5.20;69.80
21944;DHT22;11136;48.778;9.126;2023-04-06T01:02:11;5.20;70.40
21944;DHT22;11136;48.778;9.126;2023-04-06T01:04:37;5.10;70.00
21944;DHT22;11136;48.778;9.126;2023-04-06T01:07:03;5.10;70.10
21944;DHT22;11136;48.778;9.126;2023-04-06T01:09:28;5.10;70.20
21944;DHT22;11136;48.778;9.126;2023-04-06T01:11:58;5.10;70.30
21944;DHT22;11136;48.778;9.126;2023-04-06T01:14:24;5.10;70.40
21944;DHT22;11136;48.778;9.126;2023-04-06T01:16:52;5.10;70.50
21944;DHT22;11136;48.778;9.126;2023-04-06T01:19:17;5.00;70.60
21944;DHT22;11136;48.778;9.126;2023-04-06T01:21:43;5.00;70.60
21944;DHT22;11136;48.778;9.126;2023-04-06T01:24:09;5.00;70.70
21944;DHT22;11136;48.778;9.126;2023-04-06T01:26:35;5.00;70.70
21944;DHT22;11136;48.778;9.126;2023-04-06T01:29:02;5.00;70.80
21944;DHT22;11136;48.778;9.126;2023-04-06T01:31:28;5.00;70.90
21944;DHT22;11136;48.778;9.126;2023-04-06T01:33:54;5.00;71.00
21944;DHT22;11136;48.778;9.126;2023-04-06T01:36:20;5.10;71.00
21944;DHT22;11136;48.778;9.126;2023-04-06T01:38:46;4.90;71.00
21944;DHT22;11136;48.778;9.126;2023-04-06T01:41:12;4.90;71.00
21944;DHT22;11136;48.778;9.126;2023-04-06T01:43:37;4.90;71.10
21944;DHT22;11136;48.778;9.126;2023-04-06T01:46:03;4.80;71.10
21944;DHT22;11136;48.778;9.126;2023-04-06T01:48:29;4.80;71.10
21944;DHT22;11136;48.778;9.126;2023-04-06T01:50:55;4.80;71.30
21944;DHT22;11136;48.778;9.126;2023-04-06T01:53:21;4.90;71.40
21944;DHT22;11136;48.778;9.126;2023-04-06T01:55:47;4.70;71.40
21944;DHT22;11136;48.778;9.126;2023-04-06T01:58:12;4.60;71.50
21944;DHT22;11136;48.778;9.126;2023-04-06T02:00:38;4.60;71.70
21944;DHT22;11136;48.778;9.126;2023-04-06T02:03:04;4.60;71.90
21944;DHT22;11136;48.778;9.126;2023-04-06T02:05:33;4.60;72.00
21944;DHT22;11136;48.778;9.126;2023-04-06T02:08:03;4.60;72.10
21944;DHT22;11136;48.778;9.126;2023-04-06T02:10:30;4.50;72.20
21944;DHT22;11136;48.778;9.126;2023-04-06T02:12:55;4.50;73.10
21944;DHT22;11136;48.778;9.126;2023-04-06T02:15:21;4.50;72.50
21944;DHT22;11136;48.778;9.126;2023-04-06T02:17:46;4.50;72.50
21944;DHT22;11136;48.778;9.126;2023-04-06T02:20:12;4.60;72.60
21944;DHT22;11136;48.778;9.126;2023-04-06T02:22:39;4.50;72.70
21944;DHT22;11136;48.778;9.126;2023-04-06T02:25:05;4.40;72.60
21944;DHT22;11136;48.778;9.126;2023-04-06T02:27:30;4.50;72.70
21944;DHT22;11136;48.778;9.126;2023-04-06T02:29:56;4.40;72.80
21944;DHT22;11136;48.778;9.126;2023-04-06T02:32:21;4.50;72.90
21944;DHT22;11136;48.778;9.126;2023-04-06T02:34:47;4.40;72.80
21944;DHT22;11136;48.778;9.126;2023-04-06T02:37:12;4.40;72.90
21944;DHT22;11136;48.778;9.126;2023-04-06T02:39:38;4.30;73.00
21944;DHT22;11136;48.778;9.126;2023-04-06T02:42:04;4.30;73.10
21944;DHT22;11136;48.778;9.126;2023-04-06T02:44:30;4.20;73.10
21944;DHT22;11136;48.778;9.126;2023-04-06T02:46:55;4.20;73.20
21944;DHT22;11136;48.778;9.126;2023-04-06T02:49:21;4.20;73.30
21944;DHT22;11136;48.778;9.126;2023-04-06T02:51:46;4.20;73.40
21944;DHT22;11136;48.778;9.126;2023-04-06T02:54:12;4.20;73.50
21944;DHT22;11136;48.778;9.126;2023-04-06T02:56:37;4.20;73.50
21944;DHT22;11136;48.778;9.126;2023-04-06T02:59:03;4.10;73.60
21944;DHT22;11136;48.778;9.126;2023-04-06T03:01:28;4.10;73.70
21944;DHT22;11136;48.778;9.126;2023-04-06T03:03:54;4.10;73.70
21944;DHT22;11136;48.778;9.126;2023-04-06T03:06:19;4.10;73.70
21944;DHT22;11136;48.778;9.126;2023-04-06T03:08:45;4.10;73.80
21944;DHT22;11136;48.778;9.126;2023-04-06T03:11:11;4.20;73.90
21944;DHT22;11136;48.778;9.126;2023-04-06T03:13:37;4.00;73.90
21944;DHT22;11136;48.778;9.126;2023-04-06T03:16:04;4.10;74.00
21944;DHT22;11136;48.778;9.126;2023-04-06T03:18:31;4.00;74.00
21944;DHT22;11136;48.778;9.126;2023-04-06T03:20:56;4.00;74.10
21944;DHT22;11136;48.778;9.126;2023-04-06T03:23:22;3.90;74.20
21944;DHT22;11136;48.778;9.126;2023-04-06T03:25:48;3.90;74.30
21944;DHT22;11136;48.778;9.126;2023-04-06T03:28:13;3.90;74.50
21944;DHT22;11136;48.778;9.126;2023-04-06T03:30:39;3.90;74.60
21944;DHT22;11136;48.778;9.126;2023-04-06T03:33:05;3.90;74.70
21944;DHT22;11136;48.778;9.126;2023-04-06T03:35:31;3.90;74.70
21944;DHT22;11136;48.778;9.126;2023-04-06T03:37:56;3.90;74.80
21944;DHT22;11136;48.778;9.126;2023-04-06T03:40:22;3.80;74.80
21944;DHT22;11136;48.778;9.126;2023-04-06T03:42:48;3.80;74.80
21944;DHT22;11136;48.778;9.126;2023-04-06T03:45:13;3.80;75.00
21944;DHT22;11136;48.778;9.126;2023-04-06T03:47:39;3.80;75.00
21944;DHT22;11136;48.778;9.126;2023-04-06T03:50:06;3.90;75.20
21944;DHT22;11136;48.778;9.126;2023-04-06T03:52:31;3.80;75.20
21944;DHT22;11136;48.778;9.126;2023-04-06T03:54:57;3.70;75.20
21944;DHT22;11136;48.778;9.126;2023-04-06T03:57:22;3.70;76.10
21944;DHT22;11136;48.778;9.126;2023-04-06T03:59:48;3.70;75.40
21944;DHT22;11136;48.778;9.126;2023-04-06T04:02:13;3.80;75.50
21944;DHT22;11136;48.778;9.126;2023-04-06T04:04:39;3.70;75.60
21944;DHT22;11136;48.778;9.126;2023-04-06T04:07:04;3.80;75.80
21944;DHT22;11136;48.778;9.126;2023-04-06T04:09:30;3.60;75.80
21944;DHT22;11136;48.778;9.126;2023-04-06T04:11:55;3.60;75.90
21944;DHT22;11136;48.778;9.126;2023-04-06T04:14:21;3.60;76.00
21944;DHT22;11136;48.778;9.126;2023-04-06T04:16:47;3.70;76.10
21944;DHT22;11136;48.778;9.126;2023-04-06T04:19:12;3.50;76.00
21944;DHT22;11136;48.778;9.126;2023-04-06T04:21:45;3.50;76.10
21944;DHT22;11136;48.778;9.126;2023-04-06T04:24:11;3.60;76.30
21944;DHT22;11136;48.778;9.126;2023-04-06T04:26:38;3.50;76.20
21944;DHT22;11136;48.778;9.126;2023-04-06T04:29:04;3.50;76.20
21944;DHT22;11136;48.778;9.126;2023-04-06T04:31:30;3.60;76.40
21944;DHT22;11136;48.778;9.126;2023-04-06T04:33:56;3.50;76.50
21944;DHT22;11136;48.778;9.126;2023-04-06T04:36:21;3.50;76.50
21944;DHT22;11136;48.778;9.126;2023-04-06T04:38:48;3.50;76.60
21944;DHT22;11136;48.778;9.126;2023-04-06T04:41:13;3.50;76.80
21944;DHT22;11136;48.778;9.126;2023-04-06T04:43:39;3.50;76.70
21944;DHT22;11136;48.778;9.126;2023-04-06T04:46:05;3.60;76.80
21944;DHT22;11136;48.778;9.126;2023-04-06T04:48:32;3.50;76.80
21944;DHT22;11136;48.778;9.126;2023-04-06T04:50:57;3.50;76.70
21944;DHT22;11136;48.778;9.126;2023-04-06T04:53:23;3.40;76.80
21944;DHT22;11136;48.778;9.126;2023-04-06T04:55:48;3.40;76.80
21944;DHT22;11136;48.778;9.126;2023-04-06T04:58:14;3.50;76.90
21944;DHT22;11136;48.778;9.126;2023-04-06T05:00:42;3.50;77.00
21944;DHT22;11136;48.778;9.126;2023-04-06T05:03:09;3.40;77.00
21944;DHT22;11136;48.778;9.126;2023-04-06T05:05:38;3.40;77.10
21944;DHT22;11136;48.778;9.126;2023-04-06T05:08:03;3.40;77.20
21944;DHT22;11136;48.778;9.126;2023-04-06T05:10:29;3.40;77.30
21944;DHT22;11136;48.778;9.126;2023-04-06T05:12:55;3.40;77.50
21944;DHT22;11136;48.778;9.126;2023-04-06T05:15:21;3.40;77.60
21944;DHT22;11136;48.778;9.126;2023-04-06T05:17:46;3.40;77.60
21944;DHT22;11136;48.778;9.126;2023-04-06T05:20:12;3.40;77.70
21944;DHT22;11136;48.778;9.126;2023-04-06T05:22:38;3.40;77.70
21944;DHT22;11136;48.778;9.126;2023-04-06T05:25:03;3.40;77.80
21944;DHT22;11136;48.778;9.126;2023-04-06T05:27:29;3.40;77.90
21944;DHT22;11136;48.778;9.126;2023-04-06T05:29:55;3.40;77.90
21944;DHT22;11136;48.778;9.126;2023-04-06T05:32:21;3.40;78.00
21944;DHT22;11136;48.778;9.126;2023-04-06T05:34:48;3.40;78.80
21944;DHT22;11136;48.778;9.126;2023-04-06T05:37:15;3.50;78.20
21944;DHT22;11136;48.778;9.126;2023-04-06T05:39:41;3.60;78.30
21944;DHT22;11136;48.778;9.126;2023-04-06T05:42:06;3.50;78.40
21944;DHT22;11136;48.778;9.126;2023-04-06T05:44:32;3.50;78.50
21944;DHT22;11136;48.778;9.126;2023-04-06T05:46:58;3.60;78.60
21944;DHT22;11136;48.778;9.126;2023-04-06T05:49:23;3.60;78.60
21944;DHT22;11136;48.778;9.126;2023-04-06T05:51:48;3.80;78.80
21944;DHT22;11136;48.778;9.126;2023-04-06T05:54:14;3.80;78.90
21944;DHT22;11136;48.778;9.126;2023-04-06T05:56:40;3.80;79.00
21944;DHT22;11136;48.778;9.126;2023-04-06T05:59:06;3.70;79.00
21944;DHT22;11136;48.778;9.126;2023-04-06T06:01:33;3.70;79.10
21944;DHT22;11136;48.778;9.126;2023-04-06T06:04:00;3.80;79.30
21944;DHT22;11136;48.778;9.126;2023-04-06T06:06:27;3.80;79.40
21944;DHT22;11136;48.778;9.126;2023-04-06T06:08:53;3.80;79.50
21944;DHT22;11136;48.778;9.126;2023-04-06T06:11:19;3.90;79.70
21944;DHT22;11136;48.778;9.126;2023-04-06T06:13:45;3.90;79.70
21944;DHT22;11136;48.778;9.126;2023-04-06T06:16:10;4.00;80.00
21944;DHT22;11136;48.778;9.126;2023-04-06T06:18:36;4.00;80.10
21944;DHT22;11136;48.778;9.126;2023-04-06T06:21:02;4.10;80.30
21944;DHT22;11136;48.778;9.126;2023-04-06T06:23:27;4.10;80.40
21944;DHT22;11136;48.778;9.126;2023-04-06T06:25:53;4.10;80.50
21944;DHT22;11136;48.778;9.126;2023-04-06T06:28:19;4.20;80.70
21944;DHT22;11136;48.778;9.126;2023-04-06T06:30:44;4.40;80.90
21944;DHT22;11136;48.778;9.126;2023-04-06T06:33:10;4.40;81.00
21944;DHT22;11136;48.778;9.126;2023-04-06T06:35:36;4.40;81.10
21944;DHT22;11136;48.778;9.126;2023-04-06T06:38:01;4.40;81.20
21944;DHT22;11136;48.778;9.126;2023-04-06T06:40:27;4.60;81.40
21944;DHT22;11136;48.778;9.126;2023-04-06T06:42:53;4.60;81.50
21944;DHT22;11136;48.778;9.126;2023-04-06T06:45:18;4.70;81.80
21944;DHT22;11136;48.778;9.126;2023-04-06T06:47:45;4.70;81.90
21944;DHT22;11136;48.778;9.126;2023-04-06T06:50:11;4.80;81.90
21944;DHT22;11136;48.778;9.126;2023-04-06T06:52:36;4.90;82.00
21944;DHT22;11136;48.778;9.126;2023-04-06T06:55:02;5.00;82.10
21944;DHT22;11136;48.778;9.126;2023-04-06T06:57:28;5.10;82.00
21944;DHT22;11136;48.778;9.126;2023-04-06T06:59:53;5.20;81.90
21944;DHT22;11136;48.778;9.126;2023-04-06T07:02:19;5.30;81.70
21944;DHT22;11136;48.778;9.126;2023-04-06T07:04:47;5.40;81.60
21944;DHT22;11136;48.778;9.126;2023-04-06T07:07:13;5.60;81.40
21944;DHT22;11136;48.778;9.126;2023-04-06T07:09:39;5.60;81.20
21944;DHT22;11136;48.778;9.126;2023-04-06T07:12:05;5.70;81.10
21944;DHT22;11136;48.778;9.126;2023-04-06T07:14:31;5.80;80.80
21944;DHT22;11136;48.778;9.126;2023-04-06T07:16:57;6.00;80.60
21944;DHT22;11136;48.778;9.126;2023-04-06T07:19:22;6.10;80.10
21944;DHT22;11136;48.778;9.126;2023-04-06T07:21:48;6.20;79.10
21944;DHT22;11136;48.778;9.126;2023-04-06T07:24:15;6.20;78.60
21944;DHT22;11136;48.778;9.126;2023-04-06T07:26:42;6.30;78.00
21944;DHT22;11136;48.778;9.126;2023-04-06T07:29:08;6.40;77.30
21944;DHT22;11136;48.778;9.126;2023-04-06T07:31:33;6.50;76.90
21944;DHT22;11136;48.778;9.126;2023-04-06T07:34:01;6.60;76.70
21944;DHT22;11136;48.778;9.126;2023-04-06T07:36:26;6.70;76.30
21944;DHT22;11136;48.778;9.126;2023-04-06T07:38:52;6.70;76.30
21944;DHT22;11136;48.778;9.126;2023-04-06T07:41:18;6.80;76.30
21944;DHT22;11136;48.778;9.126;2023-04-06T07:43:43;6.90;76.20
21944;DHT22;11136;48.778;9.126;2023-04-06T07:46:09;7.00;76.10
21944;DHT22;11136;48.778;9.126;2023-04-06T07:48:34;7.00;76.20
21944;DHT22;11136;48.778;9.126;2023-04-06T07:51:09;7.20;76.80
21944;DHT22;11136;48.778;9.126;2023-04-06T07:53:39;7.30;77.20
21944;DHT22;11136;48.778;9.126;2023-04-06T07:56:05;7.50;78.50
21944;DHT22;11136;48.778;9.126;2023-04-06T07:58:31;7.90;78.00
21944;DHT22;11136;48.778;9.126;2023-04-06T08:00:56;8.30;78.20
21944;DHT22;11136;48.778;9.126;2023-04-06T08:03:23;8.70;78.10
21944;DHT22;11136;48.778;9.126;2023-04-06T08:05:51;9.20;77.70
21944;DHT22;11136;48.778;9.126;2023-04-06T08:08:17;9.70;77.10
21944;DHT22;11136;48.778;9.126;2023-04-06T08:10:43;10.20;76.50
21944;DHT22;11136;48.778;9.126;2023-04-06T08:13:08;10.50;75.70
21944;DHT22;11136;48.778;9.126;2023-04-06T08:15:34;10.70;75.00
21944;DHT22;11136;48.778;9.126;2023-04-06T08:17:59;10.90;74.20
21944;DHT22;11136;48.778;9.126;2023-04-06T08:20:25;10.90;73.30
21944;DHT22;11136;48.778;9.126;2023-04-06T08:22:51;10.90;72.60
21944;DHT22;11136;48.778;9.126;2023-04-06T08:25:16;10.80;72.10
21944;DHT22;11136;48.778;9.126;2023-04-06T08:27:42;10.70;71.70
21944;DHT22;11136;48.778;9.126;2023-04-06T08:30:08;10.70;71.50
21944;DHT22;11136;48.778;9.126;2023-04-06T08:32:34;10.60;71.30
21944;DHT22;11136;48.778;9.126;2023-04-06T08:34:59;10.60;71.20
21944;DHT22;11136;48.778;9.126;2023-04-06T08:37:25;10.50;71.00
21944;DHT22;11136;48.778;9.126;2023-04-06T08:39:51;10.40;71.10
21944;DHT22;11136;48.778;9.126;2023-04-06T08:42:20;10.50;71.20
21944;DHT22;11136;48.778;9.126;2023-04-06T08:44:48;10.40;70.80
21944;DHT22;11136;48.778;9.126;2023-04-06T08:47:14;10.60;70.90
21944;DHT22;11136;48.778;9.126;2023-04-06T08:49:40;10.80;70.80
21944;DHT22;11136;48.778;9.126;2023-04-06T08:52:07;10.90;70.30
21944;DHT22;11136;48.778;9.126;2023-04-06T08:54:35;11.50;70.10
21944;DHT22;11136;48.778;9.126;2023-04-06T08:57:02;11.90;70.10
21944;DHT22;11136;48.778;9.126;2023-04-06T08:59:28;12.30;69.70
21944;DHT22;11136;48.778;9.126;2023-04-06T09:01:55;12.60;69.30
21944;DHT22;11136;48.778;9.126;2023-04-06T09:04:21;13.00;68.70
21944;DHT22;11136;48.778;9.126;2023-04-06T09:06:47;13.30;67.80
21944;DHT22;11136;48.778;9.126;2023-04-06T09:09:12;13.60;67.00
21944;DHT22;11136;48.778;9.126;2023-04-06T09:11:45;13.90;66.30
21944;DHT22;11136;48.778;9.126;2023-04-06T09:14:11;14.00;64.10
21944;DHT22;11136;48.778;9.126;2023-04-06T09:16:44;14.20;62.90
21944;DHT22;11136;48.778;9.126;2023-04-06T09:19:11;14.30;61.90
21944;DHT22;11136;48.778;9.126;2023-04-06T09:21:38;14.40;61.70
21944;DHT22;11136;48.778;9.126;2023-04-06T09:24:08;14.50;61.30
21944;DHT22;11136;48.778;9.126;2023-04-06T09:26:44;14.60;60.40
21944;DHT22;11136;48.778;9.126;2023-04-06T09:29:22;14.70;59.50
21944;DHT22;11136;48.778;9.126;2023-04-06T09:31:48;14.80;59.00
21944;DHT22;11136;48.778;9.126;2023-04-06T09:34:21;14.90;59.00
21944;DHT22;11136;48.778;9.126;2023-04-06T09:36:48;15.00;57.80
21944;DHT22;11136;48.778;9.126;2023-04-06T09:39:13;15.10;57.70
21944;DHT22;11136;48.778;9.126;2023-04-06T09:41:40;14.90;57.70
21944;DHT22;11136;48.778;9.126;2023-04-06T09:44:07;14.90;57.30
21944;DHT22;11136;48.778;9.126;2023-04-06T09:46:36;15.00;56.60
21944;DHT22;11136;48.778;9.126;2023-04-06T09:49:02;15.00;56.70
21944;DHT22;11136;48.778;9.126;2023-04-06T09:51:31;15.00;56.60
21944;DHT22;11136;48.778;9.126;2023-04-06T09:53:57;15.00;56.30
21944;DHT22;11136;48.778;9.126;2023-04-06T09:56:30;15.00;56.30
21944;DHT22;11136;48.778;9.126;2023-04-06T09:59:02;15.00;56.20
21944;DHT22;11136;48.778;9.126;2023-04-06T10:01:32;15.00;55.90
21944;DHT22;11136;48.778;9.126;2023-04-06T10:04:27;15.00;55.70
21944;DHT22;11136;48.778;9.126;2023-04-06T10:06:55;15.00;55.60
21944;DHT22;11136;48.778;9.126;2023-04-06T10:09:24;15.10;55.70
21944;DHT22;11136;48.778;9.126;2023-04-06T10:11:51;15.10;55.70
21944;DHT22;11136;48.778;9.126;2023-04-06T10:14:17;15.10;55.50
21944;DHT22;11136;48.778;9.126;2023-04-06T10:16:43;15.10;55.30
21944;DHT22;11136;48.778;9.126;2023-04-06T10:19:19;15.10;55.20
21944;DHT22;11136;48.778;9.126;2023-04-06T10:21:48;15.10;55.00
21944;DHT22;11136;48.778;9.126;2023-04-06T10:24:15;15.00;54.70
21944;DHT22;11136;48.778;9.126;2023-04-06T10:26:42;15.00;54.40
21944;DHT22;11136;48.778;9.126;2023-04-06T10:29:08;15.00;54.40
21944;DHT22;11136;48.778;9.126;2023-04-06T10:31:41;15.00;53.40
21944;DHT22;11136;48.778;9.126;2023-04-06T10:34:07;14.80;52.60
21944;DHT22;11136;48.778;9.126;2023-04-06T10:36:34;14.60;51.90
21944;DHT22;11136;48.778;9.126;2023-04-06T10:39:02;14.50;52.80
21944;DHT22;11136;48.778;9.126;2023-04-06T10:41:42;14.40;53.40
21944;DHT22;11136;48.778;9.126;2023-04-06T10:44:07;14.40;53.50
21944;DHT22;11136;48.778;9.126;2023-04-06T10:46:33;14.50;53.90
21944;DHT22;11136;48.778;9.126;2023-04-06T10:49:12;14.50;54.00
21944;DHT22;11136;48.778;9.126;2023-04-06T10:51:38;14.60;53.70
21944;DHT22;11136;48.778;9.126;2023-04-06T10:54:06;14.70;53.60
21944;DHT22;11136;48.778;9.126;2023-04-06T10:56:32;14.70;53.10
21944;DHT22;11136;48.778;9.126;2023-04-06T10:59:01;14.70;52.10
21944;DHT22;11136;48.778;9.126;2023-04-06T11:01:27;14.60;51.90
21944;DHT22;11136;48.778;9.126;2023-04-06T11:03:54;14.50;52.20
21944;DHT22;11136;48.778;9.126;2023-04-06T11:06:25;14.50;52.60
21944;DHT22;11136;48.778;9.126;2023-04-06T11:08:52;14.50;52.40
21944;DHT22;11136;48.778;9.126;2023-04-06T11:11:20;14.60;52.80
21944;DHT22;11136;48.778;9.126;2023-04-06T11:13:49;14.70;53.00
21944;DHT22;11136;48.778;9.126;2023-04-06T11:16:17;14.80;52.10
21944;DHT22;11136;48.778;9.126;2023-04-06T11:19:09;14.80;52.40
21944;DHT22;11136;48.778;9.126;2023-04-06T11:21:37;15.00;52.40
21944;DHT22;11136;48.778;9.126;2023-04-06T11:24:09;15.10;52.30
21944;DHT22;11136;48.778;9.126;2023-04-06T11:29:05;15.40;52.30
21944;DHT22;11136;48.778;9.126;2023-04-06T11:31:31;15.50;52.30
21944;DHT22;11136;48.778;9.126;2023-04-06T11:33:57;15.80;52.30
21944;DHT22;11136;48.778;9.126;2023-04-06T11:36:23;15.70;51.80
21944;DHT22;11136;48.778;9.126;2023-04-06T11:38:49;15.70;51.70
21944;DHT22;11136;48.778;9.126;2023-04-06T11:41:15;15.80;51.20
21944;DHT22;11136;48.778;9.126;2023-04-06T11:43:47;15.90;51.40
21944;DHT22;11136;48.778;9.126;2023-04-06T11:46:17;16.10;51.40
21944;DHT22;11136;48.778;9.126;2023-04-06T11:48:45;16.20;51.40
21944;DHT22;11136;48.778;9.126;2023-04-06T11:51:11;16.40;51.50
21944;DHT22;11136;48.778;9.126;2023-04-06T11:53:44;16.50;51.20
21944;DHT22;11136;48.778;9.126;2023-04-06T11:56:11;16.60;50.60
21944;DHT22;11136;48.778;9.126;2023-04-06T11:58:36;16.70;50.90
21944;DHT22;11136;48.778;9.126;2023-04-06T12:01:05;16.90;50.50
21944;DHT22;11136;48.778;9.126;2023-04-06T12:03:31;17.00;49.60
21944;DHT22;11136;48.778;9.126;2023-04-06T12:05:56;17.10;49.60
21944;DHT22;11136;48.778;9.126;2023-04-06T12:08:22;17.00;48.80
21944;DHT22;11136;48.778;9.126;2023-04-06T12:10:50;17.00;49.10
21944;DHT22;11136;48.778;9.126;2023-04-06T12:13:16;17.00;49.40
21944;DHT22;11136;48.778;9.126;2023-04-06T12:15:41;17.10;49.50
21944;DHT22;11136;48.778;9.126;2023-04-06T12:18:07;17.20;49.70
21944;DHT22;11136;48.778;9.126;2023-04-06T12:20:32;17.30;49.50
21944;DHT22;11136;48.778;9.126;2023-04-06T12:22:58;17.30;49.20
21944;DHT22;11136;48.778;9.126;2023-04-06T12:25:24;17.40;48.90
21944;DHT22;11136;48.778;9.126;2023-04-06T12:27:49;17.40;48.60
21944;DHT22;11136;48.778;9.126;2023-04-06T12:30:15;17.40;48.40
21944;DHT22;11136;48.778;9.126;2023-04-06T12:32:41;17.50;48.70
21944;DHT22;11136;48.778;9.126;2023-04-06T12:35:07;17.70;48.80
21944;DHT22;11136;48.778;9.126;2023-04-06T12:37:34;17.90;48.60
21944;DHT22;11136;48.778;9.126;2023-04-06T12:40:00;18.10;48.30
21944;DHT22;11136;48.778;9.126;2023-04-06T12:42:26;18.20;47.80
21944;DHT22;11136;48.778;9.126;2023-04-06T12:44:51;18.40;47.50
21944;DHT22;11136;48.778;9.126;2023-04-06T12:47:17;18.50;47.40
21944;DHT22;11136;48.778;9.126;2023-04-06T12:49:44;18.50;47.30
21944;DHT22;11136;48.778;9.126;2023-04-06T12:52:10;18.70;47.40
21944;DHT22;11136;48.778;9.126;2023-04-06T12:54:36;18.80;47.30
21944;DHT22;11136;48.778;9.126;2023-04-06T12:57:02;19.00;47.10
21944;DHT22;11136;48.778;9.126;2023-04-06T12:59:27;19.20;47.00
21944;DHT22;11136;48.778;9.126;2023-04-06T13:01:56;19.40;46.90
21944;DHT22;11136;48.778;9.126;2023-04-06T13:04:22;19.60;46.70
21944;DHT22;11136;48.778;9.126;2023-04-06T13:06:48;19.90;46.50
21944;DHT22;11136;48.778;9.126;2023-04-06T13:09:14;20.10;46.20
21944;DHT22;11136;48.778;9.126;2023-04-06T13:11:40;20.40;45.80
21944;DHT22;11136;48.778;9.126;2023-04-06T13:14:06;20.70;45.30
21944;DHT22;11136;48.778;9.126;2023-04-06T13:16:32;21.10;45.40
21944;DHT22;11136;48.778;9.126;2023-04-06T13:18:57;21.50;44.80
21944;DHT22;11136;48.778;9.126;2023-04-06T13:21:23;21.90;44.20
21944;DHT22;11136;48.778;9.126;2023-04-06T13:23:49;22.10;43.60
21944;DHT22;11136;48.778;9.126;2023-04-06T13:26:15;22.30;43.10
21944;DHT22;11136;48.778;9.126;2023-04-06T13:28:42;22.50;42.00
21944;DHT22;11136;48.778;9.126;2023-04-06T13:31:07;22.50;41.50
21944;DHT22;11136;48.778;9.126;2023-04-06T13:33:33;22.40;41.40
21944;DHT22;11136;48.778;9.126;2023-04-06T13:35:59;22.40;41.60
21944;DHT22;11136;48.778;9.126;2023-04-06T13:38:25;22.30;41.10
21944;DHT22;11136;48.778;9.126;2023-04-06T13:40:51;22.30;40.80
21944;DHT22;11136;48.778;9.126;2023-04-06T13:43:17;22.20;40.40
21944;DHT22;11136;48.778;9.126;2023-04-06T13:45:52;22.20;40.40
21944;DHT22;11136;48.778;9.126;2023-04-06T13:48:20;22.00;40.00
21944;DHT22;11136;48.778;9.126;2023-04-06T13:50:46;21.90;40.20
21944;DHT22;11136;48.778;9.126;2023-04-06T13:53:12;21.70;40.40
21944;DHT22;11136;48.778;9.126;2023-04-06T13:55:37;21.60;40.50
21944;DHT22;11136;48.778;9.126;2023-04-06T13:58:03;21.60;40.80
21944;DHT22;11136;48.778;9.126;2023-04-06T14:00:28;21.80;41.00
21944;DHT22;11136;48.778;9.126;2023-04-06T14:02:54;21.90;40.90
21944;DHT22;11136;48.778;9.126;2023-04-06T14:05:23;22.00;40.60
21944;DHT22;11136;48.778;9.126;2023-04-06T14:07:49;22.00;40.40
21944;DHT22;11136;48.778;9.126;2023-04-06T14:10:15;22.00;40.10
21944;DHT22;11136;48.778;9.126;2023-04-06T14:12:42;21.90;39.50
21944;DHT22;11136;48.778;9.126;2023-04-06T14:15:09;21.70;39.50
21944;DHT22;11136;48.778;9.126;2023-04-06T14:17:34;21.40;39.40
21944;DHT22;11136;48.778;9.126;2023-04-06T14:20:00;21.10;38.70
21944;DHT22;11136;48.778;9.126;2023-04-06T14:22:26;21.00;39.50
21944;DHT22;11136;48.778;9.126;2023-04-06T14:24:51;20.90;40.20
21944;DHT22;11136;48.778;9.126;2023-04-06T14:27:17;21.00;40.40
21944;DHT22;11136;48.778;9.126;2023-04-06T14:29:42;21.00;40.30
21944;DHT22;11136;48.778;9.126;2023-04-06T14:32:08;21.10;40.40
21944;DHT22;11136;48.778;9.126;2023-04-06T14:34:37;21.00;39.60
21944;DHT22;11136;48.778;9.126;2023-04-06T14:37:02;21.10;39.50
21944;DHT22;11136;48.778;9.126;2023-04-06T14:39:28;20.70;40.00
21944;DHT22;11136;48.778;9.126;2023-04-06T14:41:54;20.70;40.30
21944;DHT22;11136;48.778;9.126;2023-04-06T14:44:20;20.80;40.50
21944;DHT22;11136;48.778;9.126;2023-04-06T14:46:46;20.90;40.50
21944;DHT22;11136;48.778;9.126;2023-04-06T14:49:12;20.90;40.20
21944;DHT22;11136;48.778;9.126;2023-04-06T14:51:38;21.00;40.00
21944;DHT22;11136;48.778;9.126;2023-04-06T14:54:04;21.00;40.10
21944;DHT22;11136;48.778;9.126;2023-04-06T14:56:30;21.10;40.00
21944;DHT22;11136;48.778;9.126;2023-04-06T14:58:59;21.10;40.00
21944;DHT22;11136;48.778;9.126;2023-04-06T15:01:27;21.30;40.00
21944;DHT22;11136;48.778;9.126;2023-04-06T15:03:53;21.20;39.60
21944;DHT22;11136;48.778;9.126;2023-04-06T15:06:18;21.20;39.60
21944;DHT22;11136;48.778;9.126;2023-04-06T15:08:48;21.10;39.90
21944;DHT22;11136;48.778;9.126;2023-04-06T15:11:14;21.10;39.90
21944;DHT22;11136;48.778;9.126;2023-04-06T15:13:40;21.00;39.60
21944;DHT22;11136;48.778;9.126;2023-04-06T15:16:07;20.90;39.50
21944;DHT22;11136;48.778;9.126;2023-04-06T15:18:36;20.70;39.60
21944;DHT22;11136;48.778;9.126;2023-04-06T15:21:01;20.40;38.80
21944;DHT22;11136;48.778;9.126;2023-04-06T15:23:27;20.10;39.30
21944;DHT22;11136;48.778;9.126;2023-04-06T15:25:57;19.70;39.10
21944;DHT22;11136;48.778;9.126;2023-04-06T15:28:23;19.40;39.80
21944;DHT22;11136;48.778;9.126;2023-04-06T15:30:48;19.20;40.40
21944;DHT22;11136;48.778;9.126;2023-04-06T15:33:14;19.00;40.90
21944;DHT22;11136;48.778;9.126;2023-04-06T15:35:39;18.80;41.40
21944;DHT22;11136;48.778;9.126;2023-04-06T15:38:08;18.70;41.80